createdAt,value
2019-04-01T00:01:36.679Z,94989.63
2019-04-01T00:04:05.257Z,94983.91
2019-04-01T00:06:33.016Z,94985.20
2019-04-01T00:09:00.826Z,94984.48
2019-04-01T00:11:28.603Z,94966.39
2019-04-01T00:13:56.466Z,94991.86
2019-04-01T00:16:24.214Z,94986.98
2019-04-01T00:19:02.370Z,94989.55
2019-04-01T00:21:21.543Z,94984.94
2019-04-01T00:23:49.430Z,94968.54
2019-04-01T00:26:17.674Z,94988.64
2019-04-01T00:28:45.511Z,94986.27
2019-04-01T00:31:13.412Z,94980.80
2019-04-01T00:33:41.165Z,94977.79
2019-04-01T00:36:09.026Z,94985.06
2019-04-01T00:38:36.773Z,94981.71
2019-04-01T00:41:04.520Z,94984.83
2019-04-01T00:44:00.407Z,94984.61
2019-04-01T00:46:28.108Z,94991.02
2019-04-01T00:48:55.905Z,94984.45
2019-04-01T00:51:23.710Z,94988.92
2019-04-01T00:53:51.626Z,94993.09
2019-04-01T00:56:19.441Z,94983.14
2019-04-01T00:58:47.283Z,94982.34
2019-04-01T01:01:15.049Z,94987.39
2019-04-01T01:03:42.801Z,94991.59
2019-04-01T01:06:10.657Z,94996.78
2019-04-01T01:08:38.588Z,94989.20
2019-04-01T01:11:06.459Z,94994.76
2019-04-01T01:13:34.287Z,94990.31
2019-04-01T01:16:01.993Z,94991.16
2019-04-01T01:18:29.810Z,94989.97
2019-04-01T01:20:57.597Z,94993.17
2019-04-01T01:23:25.406Z,94996.73
2019-04-01T01:25:53.097Z,94993.87
2019-04-01T01:28:20.862Z,94994.02
2019-04-01T01:30:48.665Z,94991.16
2019-04-01T01:33:16.437Z,94997.59
2019-04-01T01:35:44.203Z,94992.34
2019-04-01T01:38:11.938Z,94999.75
2019-04-01T01:40:39.724Z,95000.67
2019-04-01T01:43:07.488Z,94998.80
2019-04-01T01:45:35.271Z,95003.67
2019-04-01T01:48:03.113Z,94997.43
2019-04-01T01:50:30.897Z,94997.80
2019-04-01T01:52:58.645Z,94998.62
2019-04-01T01:55:26.362Z,94998.09
2019-04-01T01:57:54.125Z,95001.37
2019-04-01T02:00:23.321Z,94990.81
2019-04-01T02:02:51.059Z,94995.29
2019-04-01T02:05:18.801Z,94994.25
2019-04-01T02:07:46.582Z,94998.56
2019-04-01T02:10:14.450Z,94996.39
2019-04-01T02:12:42.216Z,94989.83
2019-04-01T02:15:10.089Z,94991.30
2019-04-01T02:17:37.831Z,94996.36
2019-04-01T02:20:05.557Z,94998.27
2019-04-01T02:22:33.386Z,94991.95
2019-04-01T02:25:01.107Z,94995.86
2019-04-01T02:27:28.912Z,94995.23
2019-04-01T02:29:56.792Z,94990.64
2019-04-01T02:32:24.556Z,94995.95
2019-04-01T02:34:52.337Z,94999.48
2019-04-01T02:37:20.084Z,94998.34
2019-04-01T02:39:47.995Z,95000.72
2019-04-01T02:42:15.701Z,95000.95
2019-04-01T02:44:43.717Z,95010.52
2019-04-01T02:47:11.555Z,95004.73
2019-04-01T02:49:39.319Z,95004.73
2019-04-01T02:52:07.006Z,95007.08
2019-04-01T02:54:34.737Z,94990.22
2019-04-01T02:57:02.540Z,95008.34
2019-04-01T02:59:30.218Z,95008.34
2019-04-01T03:01:57.975Z,94992.02
2019-04-01T03:04:25.858Z,95012.09
2019-04-01T03:06:53.761Z,95012.09
2019-04-01T03:09:21.500Z,94989.59
2019-04-01T03:11:49.337Z,94989.59
2019-04-01T03:14:17.217Z,95011.29
2019-04-01T03:16:45.005Z,95011.48
2019-04-01T03:19:12.968Z,95025.09
2019-04-01T03:21:40.863Z,95025.09
2019-04-01T03:24:08.704Z,95016.66
2019-04-01T03:26:36.417Z,95002.52
2019-04-01T03:29:04.152Z,95002.52
2019-04-01T03:31:32.522Z,95004.25
2019-04-01T03:34:00.317Z,95004.25
2019-04-01T03:36:27.763Z,95026.89
2019-04-01T03:38:55.306Z,95022.09
2019-04-01T03:41:23.032Z,95031.73
2019-04-01T03:43:50.798Z,95029.41
2019-04-01T03:46:18.755Z,95015.47
2019-04-01T03:48:46.495Z,95015.47
2019-04-01T03:51:14.210Z,95035.50
2019-04-01T03:53:41.927Z,95030.59
2019-04-01T03:56:09.739Z,95034.34
2019-04-01T03:58:37.906Z,95036.75
2019-04-01T04:01:05.309Z,95036.75
2019-04-01T04:03:32.821Z,95042.94
2019-04-01T04:06:00.918Z,95030.49
2019-04-01T04:08:28.670Z,95046.66
2019-04-01T04:10:56.500Z,95046.66
2019-04-01T04:13:24.206Z,95047.34
2019-04-01T04:15:51.942Z,95052.92
2019-04-01T04:18:19.982Z,95057.30
2019-04-01T04:20:47.719Z,95046.72
2019-04-01T04:23:15.497Z,95046.72
2019-04-01T04:25:43.670Z,95053.53
2019-04-01T04:28:11.541Z,95053.53
2019-04-01T04:30:39.256Z,95065.34
2019-04-01T04:33:06.963Z,95068.59
2019-04-01T04:35:34.741Z,95072.56
2019-04-01T04:38:02.481Z,95075.72
2019-04-01T04:40:30.328Z,95077.17
2019-04-01T04:42:58.106Z,95056.98
2019-04-01T04:45:25.820Z,95056.98
2019-04-01T04:47:53.535Z,95076.56
2019-04-01T04:50:21.435Z,95079.34
2019-04-01T04:52:49.178Z,95077.52
2019-04-01T04:55:16.986Z,95055.09
2019-04-01T04:57:45.223Z,95055.09
2019-04-01T05:00:12.930Z,95071.36
2019-04-01T05:02:40.694Z,95070.28
2019-04-01T05:05:08.574Z,95077.41
2019-04-01T05:07:36.425Z,95078.70
2019-04-01T05:10:04.329Z,95081.72
2019-04-01T05:12:32.380Z,95081.72
2019-04-01T05:15:00.449Z,95087.63
2019-04-01T05:17:28.510Z,95074.22
2019-04-01T05:19:56.390Z,95074.91
2019-04-01T05:22:24.403Z,95092.58
2019-04-01T05:24:51.898Z,95092.58
2019-04-01T05:27:19.338Z,95095.31
2019-04-01T05:29:47.042Z,95099.25
2019-04-01T05:32:14.789Z,95095.02
2019-04-01T05:34:42.505Z,95095.33
2019-04-01T05:37:10.297Z,95093.40
2019-04-01T05:39:38.215Z,95096.94
2019-04-01T05:42:06.079Z,95099.44
2019-04-01T05:44:34.153Z,95097.80
2019-04-01T05:47:02.033Z,95098.09
2019-04-01T05:49:29.775Z,95097.06
2019-04-01T05:51:57.543Z,95094.27
2019-04-01T05:54:25.284Z,95087.75
2019-04-01T05:56:53.164Z,95089.33
2019-04-01T05:59:20.870Z,95090.48
2019-04-01T06:01:48.697Z,95086.09
2019-04-01T06:04:16.458Z,95086.84
2019-04-01T06:06:44.326Z,95080.92
2019-04-01T06:09:12.102Z,95082.31
2019-04-01T06:11:39.844Z,95086.61
2019-04-01T06:14:07.637Z,95086.34
2019-04-01T06:16:35.515Z,95089.33
2019-04-01T06:19:06.010Z,95094.30
2019-04-01T06:21:32.871Z,95089.08
2019-04-01T06:24:00.642Z,95085.62
2019-04-01T06:26:28.440Z,95087.08
2019-04-01T06:28:56.296Z,95089.98
2019-04-01T06:31:24.024Z,95092.20
2019-04-01T06:33:51.739Z,95088.00
2019-04-01T06:36:19.451Z,95091.09
2019-04-01T06:38:47.274Z,95087.16
2019-04-01T06:41:15.004Z,95091.82
2019-04-01T06:43:42.720Z,95089.01
2019-04-01T06:46:10.548Z,95088.16
2019-04-01T06:48:38.275Z,95088.53
2019-04-01T06:51:06.036Z,95089.27
2019-04-01T06:53:33.848Z,95086.16
2019-04-01T06:56:01.701Z,95088.42
2019-04-01T06:58:29.465Z,95090.60
2019-04-01T07:00:57.262Z,95089.75
2019-04-01T07:03:25.036Z,95094.77
2019-04-01T07:05:52.754Z,95096.33
2019-04-01T07:08:20.540Z,95091.90
2019-04-01T07:10:48.261Z,95096.91
2019-04-01T07:13:16.127Z,95104.03
2019-04-01T07:15:43.853Z,95091.66
2019-04-01T07:18:11.723Z,95096.31
2019-04-01T07:20:39.477Z,95092.10
2019-04-01T07:23:07.277Z,95086.98
2019-04-01T07:25:35.014Z,95090.96
2019-04-01T07:28:02.810Z,95090.46
2019-04-01T07:30:30.513Z,95091.06
2019-04-01T07:32:58.426Z,95092.48
2019-04-01T07:35:26.244Z,95096.72
2019-04-01T07:37:54.171Z,95094.91
2019-04-01T07:40:22.193Z,95095.61
2019-04-01T07:42:49.984Z,95099.44
2019-04-01T07:45:17.747Z,95105.38
2019-04-01T07:47:45.755Z,95098.92
2019-04-01T07:50:13.636Z,95100.27
2019-04-01T07:52:41.377Z,95103.71
2019-04-01T07:55:09.115Z,95099.84
2019-04-01T07:57:36.996Z,95091.13
2019-04-01T08:00:04.881Z,95103.24
2019-04-01T08:02:32.600Z,95091.55
2019-04-01T08:05:00.448Z,95091.46
2019-04-01T08:07:28.209Z,95090.97
2019-04-01T08:09:56.030Z,95090.23
2019-04-01T08:12:23.833Z,95087.23
2019-04-01T08:14:51.653Z,95086.06
2019-04-01T08:17:19.459Z,95081.59
2019-04-01T08:19:47.395Z,95077.46
2019-04-01T08:22:15.151Z,95074.88
2019-04-01T08:24:42.944Z,95088.22
2019-04-01T08:27:10.653Z,95087.31
2019-04-01T08:29:38.391Z,95078.47
2019-04-01T08:32:06.226Z,95075.70
2019-04-01T08:34:34.029Z,95082.56
2019-04-01T08:37:01.860Z,95073.43
2019-04-01T08:39:29.666Z,95070.58
2019-04-01T08:41:57.625Z,95071.58
2019-04-01T08:44:25.478Z,95071.73
2019-04-01T08:46:53.269Z,95068.68
2019-04-01T08:49:21.059Z,95065.84
2019-04-01T08:51:48.896Z,95061.36
2019-04-01T08:54:16.864Z,95054.02
2019-04-01T08:56:44.650Z,95054.20
2019-04-01T08:59:12.499Z,95053.87
2019-04-01T09:01:40.251Z,95050.58
2019-04-01T09:04:07.979Z,95045.91
2019-04-01T09:06:35.860Z,95047.16
2019-04-01T09:09:05.724Z,95042.27
2019-04-01T09:11:33.475Z,95035.90
2019-04-01T09:14:01.290Z,95032.58
2019-04-01T09:16:29.122Z,95034.19
2019-04-01T09:18:56.713Z,95033.07
2019-04-01T09:21:24.265Z,95034.52
2019-04-01T09:23:52.374Z,95039.98
2019-04-01T09:26:20.322Z,95025.84
2019-04-01T09:28:47.860Z,95028.00
2019-04-01T09:31:15.325Z,95020.10
2019-04-01T09:33:42.908Z,95008.70
2019-04-01T09:36:10.539Z,95016.70
2019-04-01T09:38:38.199Z,95010.87
2019-04-01T09:41:05.651Z,95010.37
2019-04-01T09:43:33.139Z,95005.87
2019-04-01T09:46:00.779Z,95002.97
2019-04-01T09:48:28.333Z,94996.16
2019-04-01T09:50:56.214Z,94995.38
2019-04-01T09:53:23.985Z,94992.86
2019-04-01T09:55:51.714Z,94984.47
2019-04-01T09:58:19.538Z,94982.05
2019-04-01T10:00:53.191Z,94987.08
2019-04-01T10:03:20.478Z,94985.44
2019-04-01T10:05:48.508Z,94975.36
2019-04-01T10:08:16.254Z,94983.66
2019-04-01T10:10:44.086Z,94981.56
2019-04-01T10:13:12.089Z,94975.65
2019-04-01T10:15:39.906Z,94980.24
2019-04-01T10:18:07.787Z,94975.05
2019-04-01T10:20:35.777Z,94977.40
2019-04-01T10:23:03.618Z,94972.19
2019-04-01T10:25:31.509Z,94976.20
2019-04-01T10:27:59.254Z,94977.41
2019-04-01T10:30:27.288Z,94974.69
2019-04-01T10:32:55.197Z,94959.64
2019-04-01T10:35:23.173Z,94967.23
2019-04-01T10:37:51.023Z,94969.67
2019-04-01T10:40:18.767Z,94964.94
2019-04-01T10:42:46.526Z,94965.08
2019-04-01T10:45:14.404Z,94967.87
2019-04-01T10:47:42.257Z,94972.67
2019-04-01T10:50:09.925Z,94965.39
2019-04-01T10:52:37.735Z,94963.39
2019-04-01T10:55:05.497Z,94961.34
2019-04-01T10:57:33.567Z,94949.54
2019-04-01T11:00:01.620Z,94951.14
2019-04-01T11:02:29.637Z,94950.55
2019-04-01T11:04:57.378Z,94957.92
2019-04-01T11:07:25.199Z,94949.33
2019-04-01T11:09:52.958Z,94946.02
2019-04-01T11:12:20.768Z,94949.13
2019-04-01T11:14:48.584Z,94944.66
2019-04-01T11:17:16.359Z,94940.27
2019-04-01T11:19:44.174Z,94941.70
2019-04-01T11:22:11.917Z,94947.06
2019-04-01T11:24:39.835Z,94947.06
2019-04-01T11:27:07.810Z,94937.63
2019-04-01T11:29:35.566Z,94926.98
2019-04-01T11:32:03.420Z,94928.55
2019-04-01T11:34:31.525Z,94926.95
2019-04-01T11:36:59.203Z,94914.39
2019-04-01T11:39:26.768Z,94925.48
2019-04-01T11:41:54.341Z,94919.50
2019-04-01T11:44:22.440Z,94922.58
2019-04-01T11:46:50.318Z,94911.14
2019-04-01T11:49:18.087Z,94908.40
2019-04-01T11:51:45.651Z,94909.08
2019-04-01T11:54:13.161Z,94906.58
2019-04-01T11:56:41.508Z,94902.06
2019-04-01T11:59:09.288Z,94901.56
2019-04-01T12:01:37.033Z,94890.84
2019-04-01T12:04:05.176Z,94899.52
2019-04-01T12:06:32.809Z,94890.45
2019-04-01T12:09:03.934Z,94892.83
2019-04-01T12:11:31.672Z,94891.03
2019-04-01T12:13:59.431Z,94898.05
2019-04-01T12:16:26.906Z,94899.91
2019-04-01T12:18:54.800Z,94893.33
2019-04-01T12:21:22.582Z,94894.28
2019-04-01T12:23:50.260Z,94890.38
2019-04-01T12:26:18.012Z,94885.26
2019-04-01T12:28:45.877Z,94886.42
2019-04-01T12:31:13.416Z,94890.14
2019-04-01T12:33:40.912Z,94881.58
2019-04-01T12:36:11.446Z,94882.98
2019-04-01T12:38:37.745Z,94882.80
2019-04-01T12:41:05.360Z,94874.59
2019-04-01T12:43:32.860Z,94869.45
2019-04-01T12:46:00.435Z,94876.12
2019-04-01T12:48:27.985Z,94877.23
2019-04-01T12:50:55.648Z,94868.85
2019-04-01T12:53:23.209Z,94875.67
2019-04-01T12:55:50.648Z,94865.47
2019-04-01T12:58:18.215Z,94861.44
2019-04-01T13:00:45.679Z,94862.39
2019-04-01T13:03:13.113Z,94871.95
2019-04-01T13:05:40.610Z,94869.77
2019-04-01T13:08:08.166Z,94861.95
2019-04-01T13:10:35.784Z,94868.12
2019-04-01T13:13:03.298Z,94865.44
2019-04-01T13:15:30.772Z,94863.68
2019-04-01T13:17:58.356Z,94862.91
2019-04-01T13:20:37.126Z,94859.88
2019-04-01T13:22:55.268Z,94855.75
2019-04-01T13:25:22.848Z,94858.05
2019-04-01T13:27:50.287Z,94861.34
2019-04-01T13:30:17.886Z,94857.34
2019-04-01T13:32:45.528Z,94857.91
2019-04-01T13:35:13.041Z,94857.56
2019-04-01T13:37:40.627Z,94856.40
2019-04-01T13:40:08.109Z,94845.17
2019-04-01T13:42:35.710Z,94852.14
2019-04-01T13:45:03.562Z,94851.92
2019-04-01T13:47:31.115Z,94850.73
2019-04-01T13:49:58.660Z,94847.17
2019-04-01T13:52:26.074Z,94836.42
2019-04-01T13:54:53.623Z,94846.47
2019-04-01T13:57:21.141Z,94852.73
2019-04-01T13:59:49.893Z,94850.60
2019-04-01T14:02:17.979Z,94847.48
2019-04-01T14:04:45.915Z,94844.71
2019-04-01T14:07:13.442Z,94855.36
2019-04-01T14:09:41.009Z,94848.63
2019-04-01T14:12:08.579Z,94854.19
2019-04-01T14:14:36.099Z,94847.47
2019-04-01T14:17:03.862Z,94852.61
2019-04-01T14:19:31.448Z,94853.64
2019-04-01T14:21:59.115Z,94851.66
2019-04-01T14:24:26.580Z,94844.66
2019-04-01T14:26:56.567Z,94846.46
2019-04-01T14:29:23.226Z,94849.66
2019-04-01T14:31:50.788Z,94849.10
2019-04-01T14:34:23.319Z,94851.05
2019-04-01T14:36:47.448Z,94857.17
2019-04-01T14:39:15.063Z,94854.05
2019-04-01T14:41:42.585Z,94849.66
2019-04-01T14:44:10.057Z,94849.63
2019-04-01T14:46:37.573Z,94860.22
2019-04-01T14:49:05.287Z,94858.70
2019-04-01T14:51:32.712Z,94855.75
2019-04-01T14:54:00.196Z,94861.20
2019-04-01T14:56:28.251Z,94852.75
2019-04-01T14:58:56.434Z,94849.53
2019-04-01T15:01:23.994Z,94866.46
2019-04-01T15:03:51.448Z,94862.52
2019-04-01T15:06:18.934Z,94861.09
2019-04-01T15:08:48.111Z,94866.72
2019-04-01T15:11:15.847Z,94860.48
2019-04-01T15:13:43.618Z,94859.42
2019-04-01T15:16:11.407Z,94859.61
2019-04-01T15:18:38.901Z,94861.91
2019-04-01T15:21:06.448Z,94856.86
2019-04-01T15:23:33.979Z,94860.66
2019-04-01T15:26:02.695Z,94866.91
2019-04-01T15:28:31.470Z,94856.28
2019-04-01T15:30:59.380Z,94856.22
2019-04-01T15:33:26.894Z,94858.80
2019-04-01T15:35:54.399Z,94861.77
2019-04-01T15:38:22.272Z,94866.09
2019-04-01T15:40:50.445Z,94866.69
2019-04-01T15:43:18.190Z,94871.84
2019-04-01T15:45:46.082Z,94860.89
2019-04-01T15:48:13.907Z,94869.88
2019-04-01T15:50:41.898Z,94861.35
2019-04-01T15:53:09.851Z,94864.56
2019-04-01T15:55:37.586Z,94870.08
2019-04-01T15:58:05.457Z,94859.98
2019-04-01T16:00:33.360Z,94867.91
2019-04-01T16:03:01.320Z,94870.64
2019-04-01T16:05:30.586Z,94868.70
2019-04-01T16:07:58.721Z,94868.09
2019-04-01T16:10:29.345Z,94864.37
2019-04-01T16:12:55.964Z,94873.75
2019-04-01T16:15:23.833Z,94867.59
2019-04-01T16:17:53.881Z,94874.89
2019-04-01T16:20:21.115Z,94871.44
2019-04-01T16:22:49.302Z,94872.30
2019-04-01T16:25:17.894Z,94872.25
2019-04-01T16:27:45.754Z,94876.67
2019-04-01T16:30:13.625Z,94881.10
2019-04-01T16:32:41.248Z,94883.69
2019-04-01T16:35:09.115Z,94881.74
2019-04-01T16:37:36.921Z,94877.67
2019-04-01T16:40:06.012Z,94882.50
2019-04-01T16:42:34.237Z,94883.02
2019-04-01T16:45:01.986Z,94890.11
2019-04-01T16:47:29.794Z,94892.91
2019-04-01T16:49:58.608Z,94890.94
2019-04-01T16:52:26.386Z,94896.44
2019-04-01T16:54:54.127Z,94901.06
2019-04-01T16:57:21.982Z,94896.65
2019-04-01T16:59:49.894Z,94896.90
2019-04-01T17:02:18.617Z,94902.72
2019-04-01T17:04:48.273Z,94905.25
2019-04-01T17:07:19.424Z,94913.74
2019-04-01T17:09:45.762Z,94920.84
2019-04-01T17:12:13.478Z,94919.27
2019-04-01T17:14:41.295Z,94919.73
2019-04-01T17:17:09.050Z,94916.14
2019-04-01T17:19:36.833Z,94924.92
2019-04-01T17:22:04.589Z,94927.45
2019-04-01T17:24:32.364Z,94931.03
2019-04-01T17:27:00.240Z,94927.67
2019-04-01T17:29:31.582Z,94937.15
2019-04-01T17:31:57.797Z,94940.26
2019-04-01T17:34:25.546Z,94941.28
2019-04-01T17:36:53.250Z,94946.84
2019-04-01T17:39:21.231Z,94950.07
2019-04-01T17:41:49.011Z,94955.95
2019-04-01T17:44:16.853Z,94961.09
2019-04-01T17:46:44.847Z,94958.79
2019-04-01T17:49:12.695Z,94969.46
2019-04-01T17:51:40.532Z,94969.16
2019-04-01T17:54:08.239Z,94973.91
2019-04-01T17:56:35.993Z,94972.28
2019-04-01T17:59:03.813Z,94978.18
2019-04-01T18:01:31.626Z,94986.73
2019-04-01T18:03:59.480Z,94989.91
2019-04-01T18:06:27.368Z,94991.56
2019-04-01T18:08:55.171Z,94990.53
2019-04-01T18:11:22.934Z,94998.27
2019-04-01T18:13:51.265Z,95002.17
2019-04-01T18:16:18.922Z,95007.46
2019-04-01T18:18:46.823Z,95009.61
2019-04-01T18:21:14.783Z,95013.20
2019-04-01T18:23:42.580Z,95013.92
2019-04-01T18:26:10.319Z,95016.97
2019-04-01T18:28:38.183Z,95021.36
2019-04-01T18:31:05.939Z,95024.37
2019-04-01T18:33:33.921Z,95032.58
2019-04-01T18:36:01.620Z,95028.05
2019-04-01T18:38:29.451Z,95030.61
2019-04-01T18:40:57.187Z,95033.61
2019-04-01T18:43:25.091Z,95036.52
2019-04-01T18:45:53.283Z,95033.52
2019-04-01T18:48:21.340Z,95038.95
2019-04-01T18:50:49.318Z,95045.30
2019-04-01T18:53:17.217Z,95048.80
2019-04-01T18:55:45.156Z,95056.20
2019-04-01T18:58:13.017Z,95050.78
2019-04-01T19:00:40.885Z,95051.62
2019-04-01T19:03:10.433Z,95055.89
2019-04-01T19:05:39.002Z,95055.81
2019-04-01T19:08:07.134Z,95058.09
2019-04-01T19:10:35.217Z,95058.42
2019-04-01T19:13:06.051Z,95061.97
2019-04-01T19:15:33.319Z,95055.92
2019-04-01T19:18:01.887Z,95063.47
2019-04-01T19:20:30.613Z,95065.73
2019-04-01T19:22:58.683Z,95070.96
2019-04-01T19:25:26.569Z,95069.46
2019-04-01T19:27:54.372Z,95069.02
2019-04-01T19:30:22.076Z,95073.94
2019-04-01T19:32:49.924Z,95074.55
2019-04-01T19:35:17.668Z,95077.39
2019-04-01T19:37:45.529Z,95072.70
2019-04-01T19:40:13.271Z,95084.29
2019-04-01T19:42:41.121Z,95076.91
2019-04-01T19:45:11.959Z,95088.44
2019-04-01T19:47:39.817Z,95088.97
2019-04-01T19:50:07.681Z,95094.50
2019-04-01T19:52:35.463Z,95097.44
2019-04-01T19:55:03.776Z,95104.09
2019-04-01T19:57:31.684Z,95098.69
2019-04-01T20:00:01.622Z,95103.98
2019-04-01T20:02:29.369Z,95095.81
2019-04-01T20:04:57.124Z,95099.13
2019-04-01T20:07:25.057Z,95099.46
2019-04-01T20:09:52.837Z,95098.77
2019-04-01T20:12:20.556Z,95100.28
2019-04-01T20:14:48.295Z,95098.46
2019-04-01T20:17:16.001Z,95100.63
2019-04-01T20:19:44.053Z,95108.84
2019-04-01T20:22:11.963Z,95111.34
2019-04-01T20:24:39.893Z,95101.99
2019-04-01T20:27:07.764Z,95107.33
2019-04-01T20:29:35.471Z,95109.84
2019-04-01T20:32:16.225Z,95111.14
2019-04-01T20:34:32.774Z,95109.13
2019-04-01T20:37:00.598Z,95112.00
2019-04-01T20:39:28.319Z,95108.66
2019-04-01T20:41:56.229Z,95115.82
2019-04-01T20:44:25.070Z,95115.82
2019-04-01T20:46:52.893Z,95120.17
2019-04-01T20:49:20.701Z,95125.38
2019-04-01T20:51:48.618Z,95123.20
2019-04-01T20:54:16.618Z,95124.41
2019-04-01T20:56:44.528Z,95129.57
2019-04-01T20:59:12.249Z,95126.73
2019-04-01T21:01:39.978Z,95121.20
2019-04-01T21:04:07.944Z,95123.91
2019-04-01T21:06:35.714Z,95122.05
2019-04-01T21:09:06.060Z,95116.69
2019-04-01T21:11:33.783Z,95123.08
2019-04-01T21:14:03.109Z,95117.87
2019-04-01T21:16:31.231Z,95123.89
2019-04-01T21:18:58.981Z,95119.22
2019-04-01T21:21:26.803Z,95126.41
2019-04-01T21:23:54.612Z,95128.41
2019-04-01T21:26:22.364Z,95131.91
2019-04-01T21:28:50.222Z,95132.59
2019-04-01T21:31:17.958Z,95135.95
2019-04-01T21:33:45.749Z,95137.47
2019-04-01T21:36:16.025Z,95140.30
2019-04-01T21:38:43.628Z,95139.63
2019-04-01T21:41:11.578Z,95142.30
2019-04-01T21:43:39.316Z,95142.30
2019-04-01T21:46:08.677Z,95138.06
2019-04-01T21:48:37.004Z,95140.30
2019-04-01T21:51:05.185Z,95144.31
2019-04-01T21:53:33.099Z,95147.48
2019-04-01T21:56:00.968Z,95152.34
2019-04-01T21:58:28.940Z,95147.62
2019-04-01T22:00:58.211Z,95144.98
2019-04-01T22:03:26.114Z,95145.64
2019-04-01T22:05:53.877Z,95151.50
2019-04-01T22:08:21.749Z,95150.33
2019-04-01T22:10:49.620Z,95154.84
2019-04-01T22:13:17.471Z,95157.69
2019-04-01T22:15:45.249Z,95158.36
2019-04-01T22:18:13.299Z,95159.70
2019-04-01T22:20:42.688Z,95159.20
2019-04-01T22:23:10.768Z,95156.44
2019-04-01T22:25:38.681Z,95165.62
2019-04-01T22:28:06.526Z,95162.25
2019-04-01T22:30:34.234Z,95167.72
2019-04-01T22:33:02.115Z,95164.86
2019-04-01T22:35:38.461Z,95163.30
2019-04-01T22:37:59.652Z,95169.77
2019-04-01T22:40:27.561Z,95164.45
2019-04-01T22:42:56.193Z,95157.77
2019-04-01T22:45:24.285Z,95161.66
2019-04-01T22:47:52.110Z,95160.30
2019-04-01T22:50:19.931Z,95171.41
2019-04-01T22:52:47.804Z,95160.59
2019-04-01T22:55:15.672Z,95162.77
2019-04-01T22:57:43.625Z,95161.57
2019-04-01T23:00:11.537Z,95163.31
2019-04-01T23:02:39.353Z,95166.31
2019-04-01T23:05:08.391Z,95167.22
2019-04-01T23:07:36.724Z,95168.38
2019-04-01T23:10:04.618Z,95172.00
2019-04-01T23:12:32.320Z,95172.23
2019-04-01T23:15:00.152Z,95170.59
2019-04-01T23:17:28.012Z,95169.25
2019-04-01T23:19:55.897Z,95168.44
2019-04-01T23:22:23.659Z,95169.77
2019-04-01T23:24:51.361Z,95174.89
2019-04-01T23:27:19.199Z,95167.56
2019-04-01T23:29:46.948Z,95163.02
2019-04-01T23:32:16.124Z,95164.53
2019-04-01T23:34:44.281Z,95155.88
2019-04-01T23:37:12.114Z,95150.42
2019-04-01T23:39:39.884Z,95152.72
2019-04-01T23:42:07.725Z,95147.31
2019-04-01T23:44:35.502Z,95147.40
2019-04-01T23:47:03.377Z,95151.88
2019-04-01T23:49:31.188Z,95151.63
2019-04-01T23:51:58.946Z,95155.09
2019-04-01T23:54:26.736Z,95165.64
2019-04-01T23:56:56.016Z,95162.66
2019-04-01T23:59:24.112Z,95165.23
